Terminal Aerodrome Forecast
Issued by NWS

Home | Current Version | Previous Version | Text Only | Print | Product List | Glossary On
Versions: 1 2 3 4 5 6 7 8 9 10 11 12 13 14 15 16 17 18 19 20 21 22 23 24
000
FTPQ31 PGUM 162329
TAFGUM
TAF

TAF
PGSN 162329Z 1700/1724 06009KT P6SM VCSH SCT017 SCT040 BKN110
      TEMPO 1700/1704 6SM -SHRA SCT015 OVC030=

USA.gov is the U.S. government's official web portal to all federal, state and local government web resources and services.